createdAt,value
2019-04-01T00:00:35.019Z,8.27
2019-04-01T00:03:04.349Z,10.63
2019-04-01T00:05:33.219Z,10.30
2019-04-01T00:08:02.109Z,12.63
2019-04-01T00:10:30.901Z,8.93
2019-04-01T00:12:59.766Z,12.00
2019-04-01T00:15:28.649Z,8.90
2019-04-01T00:17:57.481Z,9.13
2019-04-01T00:20:26.365Z,9.87
2019-04-01T00:22:55.416Z,8.83
2019-04-01T00:25:24.546Z,11.37
2019-04-01T00:27:53.446Z,9.10
2019-04-01T00:30:22.577Z,7.53
2019-04-01T00:32:51.682Z,9.67
2019-04-01T00:35:20.493Z,8.37
2019-04-01T00:37:49.425Z,9.63
2019-04-01T00:40:18.293Z,9.93
2019-04-01T00:42:51.919Z,12.70
2019-04-01T00:45:22.309Z,6.10
2019-04-01T00:47:51.274Z,7.60
2019-04-01T00:50:20.145Z,7.20
2019-04-01T00:52:49.038Z,5.90
2019-04-01T00:55:18.238Z,7.10
2019-04-01T00:57:47.058Z,7.73
2019-04-01T01:00:17.891Z,8.23
2019-04-01T01:02:46.698Z,6.70
2019-04-01T01:05:15.894Z,7.07
2019-04-01T01:07:44.754Z,8.10
2019-04-01T01:10:13.877Z,7.90
2019-04-01T01:12:42.803Z,6.70
2019-04-01T01:15:11.874Z,8.33
2019-04-01T01:17:40.685Z,9.83
2019-04-01T01:20:09.597Z,6.67
2019-04-01T01:22:38.427Z,5.43
2019-04-01T01:25:07.642Z,5.57
2019-04-01T01:27:36.625Z,7.47
2019-04-01T01:30:05.873Z,12.23
2019-04-01T01:32:34.972Z,9.60
2019-04-01T01:35:04.192Z,6.63
2019-04-01T01:37:33.038Z,6.73
2019-04-01T01:40:02.074Z,8.93
2019-04-01T01:42:30.890Z,7.90
2019-04-01T01:44:59.742Z,10.50
2019-04-01T01:47:28.536Z,7.17
2019-04-01T01:49:57.421Z,8.13
2019-04-01T01:52:26.354Z,10.10
2019-04-01T01:54:55.307Z,8.97
2019-04-01T01:57:24.213Z,6.83
2019-04-01T01:59:53.018Z,8.07
2019-04-01T02:02:21.841Z,7.50
2019-04-01T02:04:50.988Z,9.07
2019-04-01T02:07:19.821Z,7.40
2019-04-01T02:09:48.698Z,11.90
2019-04-01T02:12:17.832Z,11.30
2019-04-01T02:14:46.843Z,9.33
2019-04-01T02:17:15.629Z,7.63
2019-04-01T02:19:44.817Z,8.67
2019-04-01T02:22:14.074Z,5.87
2019-04-01T02:24:42.865Z,5.43
2019-04-01T02:27:31.002Z,5.60
2019-04-01T02:29:59.814Z,6.43
2019-04-01T02:32:28.631Z,4.67
2019-04-01T02:34:57.782Z,9.03
2019-04-01T02:37:26.645Z,7.40
2019-04-01T02:39:55.562Z,5.93
2019-04-01T02:42:24.474Z,7.27
2019-04-01T02:44:53.508Z,5.47
2019-04-01T02:47:22.375Z,12.53
2019-04-01T02:49:51.419Z,9.07
2019-04-01T02:52:20.306Z,6.17
2019-04-01T02:54:49.201Z,7.03
2019-04-01T02:57:18.075Z,4.63
2019-04-01T02:59:46.996Z,6.83
2019-04-01T03:02:16.161Z,7.23
2019-04-01T03:04:45.401Z,8.57
2019-04-01T03:07:14.322Z,6.83
2019-04-01T03:09:43.227Z,6.13
2019-04-01T03:12:12.083Z,10.03
2019-04-01T03:14:40.957Z,8.07
2019-04-01T03:17:10.044Z,6.10
2019-04-01T03:19:38.942Z,11.90
2019-04-01T03:22:08.118Z,10.03
2019-04-01T03:24:37.093Z,10.50
2019-04-01T03:27:06.037Z,7.70
2019-04-01T03:29:34.955Z,10.07
2019-04-01T03:32:03.950Z,7.73
2019-04-01T03:34:33.117Z,11.37
2019-04-01T03:37:01.982Z,5.00
2019-04-01T03:39:31.003Z,8.27
2019-04-01T03:41:59.942Z,9.73
2019-04-01T03:44:28.951Z,10.93
2019-04-01T03:46:57.904Z,8.83
2019-04-01T03:49:26.810Z,10.27
2019-04-01T03:51:55.797Z,6.33
2019-04-01T03:54:24.645Z,7.07
2019-04-01T03:56:53.603Z,7.50
2019-04-01T03:59:22.417Z,8.60
2019-04-01T04:01:51.326Z,6.70
2019-04-01T04:04:20.229Z,7.53
2019-04-01T04:06:49.213Z,10.17
2019-04-01T04:09:18.109Z,5.07
2019-04-01T04:11:47.103Z,8.13
2019-04-01T04:14:15.998Z,7.70
2019-04-01T04:16:44.941Z,7.87
2019-04-01T04:19:14.115Z,6.83
2019-04-01T04:21:43.106Z,7.93
2019-04-01T04:24:12.058Z,11.27
2019-04-01T04:26:41.221Z,7.87
2019-04-01T04:29:10.112Z,7.73
2019-04-01T04:31:39.108Z,6.87
2019-04-01T04:34:08.294Z,5.50
2019-04-01T04:36:37.092Z,6.47
2019-04-01T04:39:07.346Z,6.73
2019-04-01T04:41:36.504Z,8.33
2019-04-01T04:44:05.386Z,8.33
2019-04-01T04:46:34.376Z,8.33
2019-04-01T04:49:03.197Z,10.70
2019-04-01T04:51:32.355Z,7.60
2019-04-01T04:54:01.422Z,11.97
2019-04-01T04:56:30.338Z,7.77
2019-04-01T04:58:59.344Z,9.27
2019-04-01T05:01:28.170Z,16.43
2019-04-01T05:03:57.141Z,12.17
2019-04-01T05:06:26.232Z,8.60
2019-04-01T05:08:55.155Z,9.97
2019-04-01T05:11:24.050Z,7.37
2019-04-01T05:13:53.305Z,25.90
2019-04-01T05:16:22.077Z,18.47
2019-04-01T05:18:51.043Z,10.90
2019-04-01T05:21:20.041Z,13.53
2019-04-01T05:23:51.201Z,11.33
2019-04-01T05:26:21.867Z,13.73
2019-04-01T05:28:51.194Z,15.77
2019-04-01T05:31:22.246Z,11.10
2019-04-01T08:30:23.459Z,9.10
2019-04-01T08:32:52.505Z,8.30
2019-04-01T08:35:21.673Z,9.83
2019-04-01T08:37:50.981Z,8.03
2019-04-01T08:40:20.432Z,10.20
2019-04-01T08:42:49.470Z,10.67
2019-04-01T08:45:18.500Z,10.00
2019-04-01T08:47:47.599Z,9.37
2019-04-01T08:50:17.156Z,13.43
2019-04-01T08:52:46.318Z,9.90
2019-04-01T08:55:15.316Z,9.47
2019-04-01T08:57:44.300Z,9.97
2019-04-01T09:00:13.720Z,8.87
2019-04-01T09:02:43.016Z,8.53
2019-04-01T09:05:12.171Z,12.10
2019-04-01T09:07:41.901Z,8.57
2019-04-01T09:10:10.941Z,8.07
2019-04-01T09:12:39.927Z,14.03
2019-04-01T09:15:09.053Z,12.33
2019-04-01T09:17:40.270Z,10.80
2019-04-01T09:20:08.898Z,9.70
2019-04-01T09:22:37.831Z,12.57
2019-04-01T09:25:07.000Z,13.27
2019-04-01T09:27:36.044Z,11.67
2019-04-01T09:30:06.249Z,12.23
2019-04-01T09:32:35.172Z,11.65
2019-04-01T09:35:04.459Z,12.77
2019-04-01T09:37:33.541Z,9.73
2019-04-01T09:40:02.506Z,11.43
2019-04-01T09:42:31.582Z,12.10
2019-04-01T09:45:00.687Z,11.38
2019-04-01T09:47:29.931Z,11.25
2019-04-01T09:49:58.955Z,11.60
2019-04-01T09:52:27.867Z,11.05
2019-04-01T09:54:57.109Z,10.48
2019-04-01T09:57:26.164Z,10.72
2019-04-01T09:59:55.236Z,14.00
2019-04-01T10:02:31.806Z,12.37
2019-04-01T10:04:55.275Z,11.18
2019-04-01T10:07:24.332Z,14.55
2019-04-01T10:09:53.320Z,10.23
2019-04-01T10:12:22.353Z,12.85
2019-04-01T10:14:51.684Z,13.25
2019-04-01T10:17:20.714Z,13.48
2019-04-01T10:19:49.767Z,11.85
2019-04-01T10:22:18.657Z,12.15
2019-04-01T10:24:47.530Z,14.05
2019-04-01T10:27:16.653Z,12.58
2019-04-01T10:29:45.715Z,13.60
2019-04-01T10:32:15.029Z,16.50
2019-04-01T10:34:43.978Z,12.37
2019-04-01T10:37:13.027Z,11.93
2019-04-01T10:39:42.104Z,14.75
2019-04-01T10:42:11.503Z,14.78
2019-04-01T10:44:40.611Z,13.03
2019-04-01T10:47:09.689Z,14.85
2019-04-01T10:49:38.693Z,15.53
2019-04-01T10:52:07.806Z,17.73
2019-04-01T10:54:36.818Z,14.00
2019-04-01T10:57:05.803Z,13.58
2019-04-01T10:59:35.194Z,16.87
2019-04-01T11:02:04.338Z,13.95
2019-04-01T11:04:33.379Z,14.87
2019-04-01T11:07:02.604Z,17.10
2019-04-01T11:09:38.357Z,11.33
2019-04-01T11:12:02.410Z,12.88
2019-04-01T11:14:31.528Z,11.97
2019-04-01T11:17:04.134Z,15.00
2019-04-01T11:19:31.183Z,15.55
2019-04-01T11:22:00.237Z,15.58
2019-04-01T11:24:29.208Z,14.00
2019-04-01T11:26:58.502Z,15.50
2019-04-01T11:29:27.873Z,16.40
2019-04-01T11:31:57.103Z,15.68
2019-04-01T11:34:26.711Z,15.35
2019-04-01T11:36:55.857Z,15.98
2019-04-01T11:39:25.074Z,15.58
2019-04-01T11:41:54.142Z,15.30
2019-04-01T11:44:23.288Z,14.63
2019-04-01T11:46:53.373Z,19.75
2019-04-01T11:49:22.689Z,22.27
2019-04-01T11:51:52.050Z,15.35
2019-04-01T11:54:21.067Z,15.60
2019-04-01T11:56:50.100Z,14.60
2019-04-01T11:59:19.188Z,13.75
2019-04-01T12:01:48.301Z,14.38
2019-04-01T12:04:17.463Z,14.35
2019-04-01T12:06:46.370Z,15.13
2019-04-01T12:09:15.363Z,15.63
2019-04-01T12:11:44.375Z,15.45
2019-04-01T12:14:13.327Z,13.43
2019-04-01T12:16:42.802Z,15.18
2019-04-01T12:19:12.209Z,17.05
2019-04-01T12:21:41.589Z,17.73
2019-04-01T12:24:10.753Z,13.58
2019-04-01T12:26:39.857Z,16.82
2019-04-01T12:29:12.017Z,15.48
2019-04-01T12:31:39.939Z,15.72
2019-04-01T12:34:09.204Z,14.25
2019-04-01T12:36:38.135Z,16.32
2019-04-01T12:39:07.849Z,14.25
2019-04-01T12:41:36.958Z,14.18
2019-04-01T12:44:06.488Z,15.32
2019-04-01T12:46:35.468Z,13.72
2019-04-01T12:49:04.563Z,13.88
2019-04-01T12:51:33.669Z,13.83
2019-04-01T12:54:03.024Z,17.35
2019-04-01T12:56:32.012Z,16.65
2019-04-01T12:59:01.079Z,15.48
2019-04-01T13:01:30.112Z,13.80
2019-04-01T13:03:59.507Z,16.77
2019-04-01T13:06:28.534Z,16.67
2019-04-01T13:08:57.688Z,14.50
2019-04-01T13:11:26.743Z,16.37
2019-04-01T13:13:55.851Z,14.33
2019-04-01T13:16:25.136Z,14.25
2019-04-01T13:18:54.088Z,16.60
2019-04-01T13:21:23.164Z,16.27
2019-04-01T13:23:52.132Z,16.05
2019-04-01T13:26:21.940Z,19.32
2019-04-01T13:28:51.003Z,16.45
2019-04-01T13:31:19.864Z,15.43
2019-04-01T13:33:49.457Z,34.95
2019-04-01T13:36:18.525Z,20.90
2019-04-01T13:38:47.901Z,19.42
2019-04-01T13:41:17.218Z,17.50
2019-04-01T13:43:46.296Z,15.00
2019-04-01T13:46:15.251Z,18.25
2019-04-01T13:48:56.898Z,17.00
2019-04-01T13:51:14.984Z,16.37
2019-04-01T13:53:43.936Z,15.78
2019-04-01T13:56:13.001Z,14.05
2019-04-01T13:58:41.989Z,16.15
2019-04-01T14:01:11.211Z,16.97
2019-04-01T14:03:40.239Z,21.33
2019-04-01T14:06:09.512Z,17.77
2019-04-01T14:08:38.480Z,19.35
2019-04-01T14:11:07.550Z,15.90
2019-04-01T14:13:36.558Z,17.57
2019-04-01T14:16:05.582Z,15.55
2019-04-01T14:18:34.614Z,18.25
2019-04-01T14:21:15.286Z,15.00
2019-04-01T14:23:34.281Z,17.05
2019-04-01T14:26:03.307Z,19.35
2019-04-01T14:28:32.232Z,17.95
2019-04-01T14:31:01.197Z,16.60
2019-04-01T14:33:32.608Z,18.87
2019-04-01T14:36:00.699Z,17.30
2019-04-01T14:38:30.031Z,20.65
2019-04-01T14:40:58.869Z,18.32
2019-04-01T14:43:31.015Z,16.75
2019-04-01T14:45:58.455Z,16.52
2019-04-01T14:48:27.730Z,14.05
2019-04-01T14:50:56.637Z,17.65
2019-04-01T14:53:25.545Z,15.10
2019-04-01T14:55:54.574Z,16.35
2019-04-01T14:58:24.001Z,16.67
2019-04-01T15:00:53.551Z,17.77
2019-04-01T15:03:22.626Z,15.55
2019-04-01T15:05:51.637Z,15.32
2019-04-01T15:08:21.196Z,17.35
2019-04-01T15:10:50.103Z,22.30
2019-04-01T15:13:19.403Z,17.70
2019-04-01T15:15:48.314Z,14.13
2019-04-01T15:18:17.540Z,18.05
2019-04-01T15:20:46.726Z,17.27
2019-04-01T15:23:15.538Z,17.02
2019-04-01T15:25:44.530Z,15.05
2019-04-01T15:28:13.431Z,13.85
2019-04-01T15:30:42.426Z,15.78
2019-04-01T15:33:11.419Z,14.70
2019-04-01T15:35:40.378Z,16.70
2019-04-01T15:38:09.313Z,14.95
2019-04-01T15:40:38.397Z,16.52
2019-04-01T15:43:07.331Z,13.83
2019-04-01T15:45:36.247Z,15.00
2019-04-01T15:48:05.183Z,14.95
2019-04-01T15:50:34.087Z,16.87
2019-04-01T15:53:03.028Z,18.35
2019-04-01T15:55:32.207Z,16.67
2019-04-01T15:58:01.296Z,17.35
2019-04-01T16:00:30.201Z,16.27
2019-04-01T16:03:00.246Z,16.70
2019-04-01T16:05:30.590Z,15.75
2019-04-01T16:07:59.565Z,18.73
2019-04-01T16:10:29.505Z,13.65
2019-04-01T16:12:58.678Z,17.15
2019-04-01T16:15:27.580Z,16.48
2019-04-01T16:17:56.513Z,15.43
2019-04-01T16:20:26.205Z,14.33
2019-04-01T16:22:55.518Z,13.55
2019-04-01T16:25:24.402Z,15.45
2019-04-01T16:27:53.316Z,14.80
2019-04-01T16:30:22.339Z,13.83
2019-04-01T16:32:51.237Z,12.95
2019-04-01T16:35:20.407Z,17.80
2019-04-01T16:37:49.247Z,14.05
2019-04-01T16:40:18.703Z,14.40
2019-04-01T16:42:48.182Z,15.45
2019-04-01T16:45:17.401Z,16.40
2019-04-01T16:47:48.494Z,14.07
2019-04-01T16:50:17.053Z,15.10
2019-04-01T16:52:45.926Z,13.30
2019-04-01T16:55:18.047Z,13.88
2019-04-01T16:57:45.874Z,12.68
2019-04-01T17:00:16.777Z,13.05
2019-04-01T17:02:45.753Z,15.55
2019-04-01T17:05:18.025Z,14.80
2019-04-01T17:07:47.083Z,15.23
2019-04-01T17:10:23.199Z,14.60
2019-04-01T17:12:52.210Z,15.50
2019-04-01T17:15:21.480Z,16.53
2019-04-01T17:17:50.649Z,15.00
2019-04-01T17:20:19.621Z,12.53
2019-04-01T17:22:48.580Z,17.97
2019-04-01T17:25:17.865Z,13.93
2019-04-01T17:27:46.902Z,15.73
2019-04-01T17:30:15.962Z,15.00
2019-04-01T17:32:45.027Z,16.43
2019-04-01T17:35:14.012Z,18.57
2019-04-01T17:37:43.021Z,14.77
2019-04-01T17:40:12.177Z,17.73
2019-04-01T17:42:41.109Z,18.73
2019-04-01T17:45:36.308Z,15.47
2019-04-01T17:48:06.037Z,15.50
2019-04-01T17:50:35.021Z,15.50
2019-04-01T17:53:06.001Z,16.83
2019-04-01T17:55:34.977Z,19.60
2019-04-01T17:58:04.362Z,15.33
2019-04-01T18:00:34.842Z,17.27
2019-04-01T18:03:04.196Z,17.97
2019-04-01T18:05:34.310Z,17.10
2019-04-01T18:08:04.945Z,21.10
2019-04-01T18:10:34.637Z,18.03
2019-04-01T18:13:03.546Z,20.43
2019-04-01T18:15:32.685Z,17.63
2019-04-01T18:18:01.642Z,18.60
2019-04-01T18:20:30.832Z,18.10
2019-04-01T18:22:59.774Z,17.43
2019-04-01T18:25:28.762Z,16.97
2019-04-01T18:27:57.708Z,17.33
2019-04-01T18:30:27.002Z,17.97
2019-04-01T18:32:55.861Z,15.90
2019-04-01T18:35:25.489Z,18.57
2019-04-01T18:37:54.602Z,16.80
2019-04-01T18:40:32.542Z,19.13
2019-04-01T18:42:54.343Z,16.97
2019-04-01T18:45:23.177Z,18.23
2019-04-01T18:47:52.069Z,19.37
2019-04-01T18:50:20.982Z,21.73
2019-04-01T18:52:49.833Z,19.17
2019-04-01T18:55:18.817Z,18.77
2019-04-01T18:57:48.261Z,17.03
2019-04-01T19:00:18.334Z,18.07
2019-04-01T19:02:47.495Z,18.77
2019-04-01T19:05:16.494Z,17.90
2019-04-01T19:07:45.440Z,16.20
2019-04-01T19:10:14.723Z,16.00
2019-04-01T19:12:43.644Z,22.93
2019-04-01T19:15:13.146Z,20.63
2019-04-01T19:17:43.106Z,20.70
2019-04-01T19:20:12.752Z,19.47
2019-04-01T19:22:41.965Z,15.83
2019-04-01T19:25:10.922Z,18.60
2019-04-01T19:27:39.939Z,16.67
2019-04-01T19:30:09.221Z,16.63
2019-04-01T19:32:38.425Z,14.80
2019-04-01T19:35:09.534Z,16.00
2019-04-01T19:37:38.548Z,16.17
2019-04-01T19:40:09.311Z,16.57
2019-04-01T19:42:39.548Z,16.17
2019-04-01T19:45:12.037Z,13.63
2019-04-01T19:47:41.209Z,15.03
2019-04-01T19:50:10.906Z,16.77
2019-04-01T19:52:39.965Z,15.83
2019-04-01T19:55:09.381Z,15.23
2019-04-01T19:57:39.453Z,17.93
2019-04-01T20:00:08.824Z,15.03
2019-04-01T20:02:37.852Z,13.57
2019-04-01T20:05:07.022Z,16.47
2019-04-01T20:07:35.958Z,14.67
2019-04-01T20:10:05.811Z,13.87
2019-04-01T20:12:34.756Z,17.20
2019-04-01T20:15:04.100Z,11.87
2019-04-01T20:17:32.913Z,14.00
2019-04-01T20:20:02.596Z,13.37
2019-04-01T20:22:31.833Z,15.07
2019-04-01T20:25:05.124Z,19.03
2019-04-01T20:27:33.993Z,14.37
2019-04-01T20:30:02.971Z,18.33
2019-04-01T20:32:31.971Z,16.53
2019-04-01T20:35:00.876Z,16.33
2019-04-01T20:37:29.961Z,13.53
2019-04-01T20:39:59.127Z,14.30
2019-04-01T20:42:28.212Z,13.33
2019-04-01T20:44:57.409Z,16.63
2019-04-01T20:47:26.325Z,14.80
2019-04-01T20:49:55.299Z,16.03
2019-04-01T20:52:24.167Z,17.20
2019-04-01T20:54:53.128Z,12.83
2019-04-01T20:57:22.098Z,17.17
2019-04-01T20:59:50.998Z,12.77
2019-04-01T21:02:19.951Z,13.80
2019-04-01T21:04:49.055Z,17.77
2019-04-01T21:07:18.338Z,17.00
2019-04-01T21:09:47.613Z,16.33
2019-04-01T21:12:16.934Z,14.03
2019-04-01T21:14:48.917Z,17.63
2019-04-01T21:17:17.825Z,20.90
2019-04-01T21:19:46.867Z,15.97
2019-04-01T21:22:15.793Z,17.73
2019-04-01T21:24:46.001Z,16.53
2019-04-01T21:27:15.214Z,15.70
2019-04-01T21:29:45.230Z,18.87
2019-04-01T21:32:14.266Z,17.43
2019-04-01T21:34:44.559Z,13.60
2019-04-01T21:37:17.673Z,13.77
2019-04-01T21:39:46.761Z,17.90
2019-04-01T21:42:18.772Z,17.87
2019-04-01T21:44:47.625Z,16.57
2019-04-01T21:47:16.490Z,21.73
2019-04-01T21:49:45.693Z,15.53
2019-04-01T21:52:14.550Z,15.47
2019-04-01T21:54:43.623Z,11.80
2019-04-01T21:57:12.591Z,12.43
2019-04-01T21:59:41.594Z,17.60
2019-04-01T22:02:10.517Z,15.90
2019-04-01T22:04:41.702Z,18.13
2019-04-01T22:07:10.681Z,12.97
2019-04-01T22:09:39.677Z,13.57
2019-04-01T22:12:08.638Z,14.20
2019-04-01T22:14:37.569Z,15.47
2019-04-01T22:17:06.461Z,17.43
2019-04-01T22:19:35.474Z,16.00
2019-04-01T22:22:04.623Z,14.90
2019-04-01T22:24:33.465Z,17.50
2019-04-01T22:27:02.443Z,15.73
2019-04-01T22:29:31.344Z,17.77
2019-04-01T22:32:00.279Z,17.33
2019-04-01T22:34:29.127Z,14.27
2019-04-01T22:36:58.187Z,13.70
2019-04-01T22:39:27.539Z,14.40
2019-04-01T22:41:58.263Z,16.40
2019-04-01T22:44:27.310Z,18.37
2019-04-01T22:46:56.114Z,15.60
2019-04-01T22:49:25.030Z,17.80
2019-04-01T22:51:54.317Z,19.60
2019-04-01T22:54:23.385Z,15.73
2019-04-01T22:56:52.326Z,19.57
2019-04-01T22:59:21.265Z,13.77
2019-04-01T23:01:50.198Z,15.73
2019-04-01T23:04:19.362Z,12.40
2019-04-01T23:06:48.298Z,15.87
2019-04-01T23:09:17.386Z,19.17
2019-04-01T23:11:46.206Z,14.33
2019-04-01T23:14:15.087Z,18.93
2019-04-01T23:16:44.379Z,16.47
2019-04-01T23:19:13.407Z,17.63
2019-04-01T23:21:43.218Z,15.03
2019-04-01T23:24:12.203Z,17.43
2019-04-01T23:26:41.080Z,14.27
2019-04-01T23:29:09.961Z,17.50
2019-04-01T23:31:38.849Z,14.20
2019-04-01T23:34:07.670Z,18.60
2019-04-01T23:36:36.577Z,14.30
2019-04-01T23:39:07.301Z,11.73
2019-04-01T23:41:36.375Z,16.63
2019-04-01T23:44:05.706Z,16.53
2019-04-01T23:46:34.704Z,14.47
2019-04-01T23:49:03.681Z,17.93
2019-04-01T23:51:32.621Z,15.93
2019-04-01T23:54:02.295Z,15.77
2019-04-01T23:56:31.593Z,15.47
2019-04-01T23:59:00.473Z,19.33
